createdAt,value
2022-09-03T00:02:28.330Z,23.78
2022-09-03T00:05:14.937Z,23.72
2022-09-03T00:08:03.666Z,23.68
2022-09-03T00:10:48.427Z,23.64
2022-09-03T00:13:23.615Z,23.58
2022-09-03T00:15:53.367Z,23.54
2022-09-03T00:18:24.162Z,23.48
2022-09-03T00:21:05.028Z,23.42
2022-09-03T00:23:33.422Z,23.37
2022-09-03T00:26:05.114Z,23.33
2022-09-03T00:28:42.075Z,23.26
2022-09-03T00:31:22.743Z,23.17
2022-09-03T00:33:55.067Z,23.05
2022-09-03T00:36:28.638Z,23.14
2022-09-03T00:38:55.838Z,23.14
2022-09-03T00:41:22.644Z,23.14
2022-09-03T00:44:19.971Z,23.15
2022-09-03T00:47:13.746Z,23.16
2022-09-03T00:50:09.027Z,23.19
2022-09-03T00:53:02.748Z,23.23
2022-09-03T00:55:44.392Z,23.25
2022-09-03T00:58:29.132Z,23.23
2022-09-03T01:00:56.678Z,23.17
2022-09-03T01:03:42.268Z,23.16
2022-09-03T01:06:18.877Z,23.13
2022-09-03T01:09:15.393Z,23.21
2022-09-03T01:12:05.146Z,23.23
2022-09-03T01:15:01.875Z,23.32
2022-09-03T01:17:35.024Z,23.34
2022-09-03T01:20:27.387Z,23.47
2022-09-03T01:23:19.332Z,23.52
2022-09-03T01:26:11.655Z,23.50
2022-09-03T01:28:41.326Z,23.56
2022-09-03T01:31:40.002Z,23.57
2022-09-03T01:34:28.236Z,23.55
2022-09-03T01:37:11.898Z,23.50
2022-09-03T01:40:20.881Z,23.49
2022-09-03T01:43:18.596Z,23.51
2022-09-03T01:46:41.238Z,23.51
2022-09-03T01:49:21.503Z,23.52
2022-09-03T01:51:56.327Z,23.50
2022-09-03T01:54:38.095Z,23.52
2022-09-03T01:57:37.122Z,23.55
2022-09-03T02:00:12.946Z,23.51
2022-09-03T02:02:43.020Z,23.49
2022-09-03T02:05:21.280Z,23.47
2022-09-03T02:07:51.951Z,23.45
2022-09-03T02:10:22.706Z,23.40
2022-09-03T02:12:54.744Z,23.40
2022-09-03T02:15:24.609Z,23.37
2022-09-03T02:17:58.238Z,23.36
2022-09-03T02:20:28.582Z,23.30
2022-09-03T02:22:56.966Z,23.27
2022-09-03T02:25:30.837Z,23.26
2022-09-03T02:27:58.238Z,23.25
2022-09-03T02:30:25.117Z,23.25
2022-09-03T02:32:52.071Z,23.26
2022-09-03T02:35:19.195Z,23.21
2022-09-03T02:37:46.085Z,23.17
2022-09-03T02:40:12.970Z,23.13
2022-09-03T02:42:39.825Z,23.08
2022-09-03T02:45:30.335Z,23.00
2022-09-03T02:48:00.360Z,22.96
2022-09-03T02:50:27.609Z,22.91
2022-09-03T02:52:54.829Z,22.87
2022-09-03T02:55:21.980Z,22.85
2022-09-03T02:57:48.885Z,22.81
2022-09-03T03:00:15.969Z,22.77
2022-09-03T03:02:42.844Z,22.75
2022-09-03T03:05:16.607Z,22.75
2022-09-03T03:07:43.439Z,22.74
2022-09-03T03:10:10.550Z,22.72
2022-09-03T03:12:37.476Z,22.70
2022-09-03T03:15:04.718Z,22.67
2022-09-03T03:17:31.584Z,22.66
2022-09-03T03:19:58.562Z,22.62
2022-09-03T03:22:25.437Z,22.61
2022-09-03T03:24:52.322Z,22.63
2022-09-03T03:27:19.317Z,22.63
2022-09-03T03:29:46.183Z,22.65
2022-09-03T03:32:13.027Z,22.71
2022-09-03T03:34:40.006Z,22.73
2022-09-03T03:37:06.972Z,22.77
2022-09-03T03:39:33.956Z,22.79
2022-09-03T03:42:00.900Z,22.85
2022-09-03T03:44:27.766Z,22.91
2022-09-03T03:46:54.619Z,22.97
2022-09-03T03:49:21.666Z,23.05
2022-09-03T03:51:48.557Z,23.14
2022-09-03T03:54:17.634Z,23.24
2022-09-03T03:56:45.025Z,23.33
2022-09-03T03:59:22.387Z,23.45
2022-09-03T04:01:49.352Z,23.57
2022-09-03T04:04:16.242Z,23.69
2022-09-03T04:06:43.121Z,23.83
2022-09-03T04:09:09.971Z,23.98
2022-09-03T04:11:36.880Z,24.15
2022-09-03T04:14:03.776Z,24.33
2022-09-03T04:16:30.787Z,24.51
2022-09-03T04:18:57.850Z,24.63
2022-09-03T04:21:28.594Z,24.78
2022-09-03T04:23:56.994Z,24.85
2022-09-03T04:26:30.342Z,24.93
2022-09-03T04:28:58.035Z,25.06
2022-09-03T04:31:25.254Z,25.24
2022-09-03T04:33:52.084Z,25.40
2022-09-03T04:36:21.167Z,25.50
2022-09-03T04:38:51.374Z,25.59
2022-09-03T04:41:20.842Z,25.75
2022-09-03T04:43:51.267Z,25.96
2022-09-03T04:46:19.557Z,26.14
2022-09-03T04:48:51.525Z,26.30
2022-09-03T04:51:23.397Z,26.47
2022-09-03T04:53:56.929Z,26.60
2022-09-03T04:56:26.669Z,26.77
2022-09-03T04:59:01.729Z,26.91
2022-09-03T05:01:31.058Z,27.06
2022-09-03T05:03:59.012Z,27.21
2022-09-03T05:06:27.283Z,27.32
2022-09-03T05:08:56.703Z,27.42
2022-09-03T05:11:25.052Z,27.56
2022-09-03T05:13:54.862Z,27.70
2022-09-03T05:16:22.905Z,27.75
2022-09-03T05:18:53.316Z,27.99
2022-09-03T05:21:21.094Z,28.10
2022-09-03T05:23:49.694Z,28.18
2022-09-03T05:26:19.818Z,28.32
2022-09-03T05:28:48.092Z,28.40
2022-09-03T05:31:19.083Z,28.51
2022-09-03T05:33:48.161Z,28.62
2022-09-03T05:36:20.886Z,28.82
2022-09-03T05:38:47.891Z,28.94
2022-09-03T05:41:17.439Z,29.12
2022-09-03T05:43:48.890Z,29.20
2022-09-03T05:46:15.877Z,29.27
2022-09-03T05:48:43.250Z,29.35
2022-09-03T05:51:18.071Z,29.42
2022-09-03T05:53:47.655Z,29.53
2022-09-03T05:56:23.164Z,29.64
2022-09-03T05:58:52.527Z,29.78
2022-09-03T06:01:19.329Z,29.85
2022-09-03T06:03:48.292Z,29.96
2022-09-03T06:06:15.870Z,30.06
2022-09-03T06:08:42.996Z,30.16
2022-09-03T06:11:10.097Z,30.24
2022-09-03T06:13:37.316Z,30.38
2022-09-03T06:16:06.696Z,30.43
2022-09-03T06:18:33.790Z,30.53
2022-09-03T06:21:03.774Z,30.60
2022-09-03T06:23:32.128Z,30.66
2022-09-03T06:26:05.598Z,30.76
2022-09-03T06:28:37.180Z,30.82
2022-09-03T06:31:06.784Z,30.88
2022-09-03T06:33:36.051Z,30.93
2022-09-03T06:36:08.686Z,30.95
2022-09-03T06:38:38.032Z,30.89
2022-09-03T06:41:10.170Z,31.00
2022-09-03T06:43:39.533Z,31.04
2022-09-03T06:46:18.161Z,31.12
2022-09-03T06:48:45.760Z,31.24
2022-09-03T06:51:22.240Z,31.36
2022-09-03T06:53:51.800Z,31.45
2022-09-03T06:56:21.367Z,31.56
2022-09-03T06:58:48.545Z,31.60
2022-09-03T07:01:21.217Z,31.64
2022-09-03T07:03:53.142Z,31.68
2022-09-03T07:06:20.217Z,31.78
2022-09-03T07:08:47.273Z,31.90
2022-09-03T07:11:16.477Z,32.01
2022-09-03T07:13:45.637Z,32.10
2022-09-03T07:16:21.108Z,32.18
2022-09-03T07:18:49.059Z,32.18
2022-09-03T07:21:18.683Z,32.18
2022-09-03T07:23:46.554Z,32.17
2022-09-03T07:26:22.473Z,32.15
2022-09-03T07:28:50.751Z,32.18
2022-09-03T07:31:33.167Z,32.22
2022-09-03T07:34:02.320Z,32.25
2022-09-03T07:36:35.261Z,32.31
2022-09-03T07:39:02.714Z,32.43
2022-09-03T07:41:29.538Z,32.40
2022-09-03T07:43:56.471Z,32.39
2022-09-03T07:46:26.111Z,32.48
2022-09-03T07:48:54.712Z,32.52
2022-09-03T07:51:23.455Z,32.67
2022-09-03T07:53:53.995Z,32.75
2022-09-03T07:56:20.878Z,32.67
2022-09-03T07:58:47.914Z,32.60
2022-09-03T08:01:17.709Z,32.63
2022-09-03T08:03:47.379Z,32.71
2022-09-03T08:06:15.984Z,32.75
2022-09-03T08:08:42.909Z,32.69
2022-09-03T08:11:12.464Z,32.72
2022-09-03T08:13:41.036Z,32.82
2022-09-03T08:16:12.593Z,32.81
2022-09-03T08:18:40.350Z,32.70
2022-09-03T08:21:12.603Z,32.78
2022-09-03T08:23:41.171Z,32.79
2022-09-03T08:26:08.646Z,32.78
2022-09-03T08:28:36.834Z,32.75
2022-09-03T08:31:07.049Z,32.76
2022-09-03T08:33:34.372Z,32.79
2022-09-03T08:36:01.339Z,32.80
2022-09-03T08:38:28.474Z,32.90
2022-09-03T08:41:06.380Z,33.00
2022-09-03T08:43:44.289Z,33.10
2022-09-03T08:46:12.334Z,33.04
2022-09-03T08:48:39.552Z,32.72
2022-09-03T08:51:09.685Z,32.63
2022-09-03T08:53:40.767Z,32.67
2022-09-03T08:56:24.472Z,32.94
2022-09-03T08:58:52.676Z,32.78
2022-09-03T09:02:04.174Z,32.55
2022-09-03T09:05:14.337Z,32.34
2022-09-03T09:08:07.169Z,32.43
2022-09-03T09:10:54.520Z,32.28
2022-09-03T09:13:52.160Z,32.20
2022-09-03T09:16:37.685Z,32.16
2022-09-03T09:19:24.301Z,31.89
2022-09-03T09:21:59.710Z,31.93
2022-09-03T09:24:34.605Z,31.87
2022-09-03T09:27:05.565Z,31.82
2022-09-03T09:29:37.145Z,31.77
2022-09-03T09:32:05.911Z,31.89
2022-09-03T09:34:38.011Z,31.81
2022-09-03T09:37:12.383Z,31.73
2022-09-03T09:39:40.864Z,31.62
2022-09-03T09:42:10.852Z,31.99
2022-09-03T09:44:43.512Z,31.91
2022-09-03T09:47:30.310Z,31.89
2022-09-03T09:50:02.097Z,31.97
2022-09-03T09:52:30.644Z,32.04
2022-09-03T09:55:11.178Z,32.09
2022-09-03T09:57:38.063Z,32.01
2022-09-03T10:00:08.592Z,31.88
2022-09-03T10:02:37.283Z,32.06
2022-09-03T10:05:21.035Z,32.06
2022-09-03T10:08:19.087Z,32.00
2022-09-03T10:10:48.906Z,32.01
2022-09-03T10:13:27.411Z,32.25
2022-09-03T10:16:29.584Z,32.33
2022-09-03T10:19:13.245Z,32.32
2022-09-03T10:22:03.427Z,32.24
2022-09-03T10:24:41.869Z,32.09
2022-09-03T10:27:16.453Z,32.34
2022-09-03T10:29:43.471Z,32.35
2022-09-03T10:32:36.863Z,32.12
2022-09-03T10:35:29.143Z,31.97
2022-09-03T10:38:22.296Z,31.90
2022-09-03T10:41:07.898Z,31.85
2022-09-03T10:43:55.016Z,31.83
2022-09-03T10:46:35.588Z,31.87
2022-09-03T10:49:27.975Z,31.94
2022-09-03T10:52:12.548Z,31.98
2022-09-03T10:54:52.663Z,31.97
2022-09-03T10:57:25.264Z,32.00
2022-09-03T11:00:03.319Z,32.08
2022-09-03T11:02:48.593Z,32.30
2022-09-03T11:05:25.965Z,32.14
2022-09-03T11:08:01.624Z,32.07
2022-09-03T11:10:34.199Z,32.10
2022-09-03T11:13:11.657Z,32.23
2022-09-03T11:16:02.221Z,32.18
2022-09-03T11:18:41.246Z,32.18
2022-09-03T11:21:12.946Z,32.51
2022-09-03T11:23:46.967Z,32.62
2022-09-03T11:26:18.748Z,32.54
2022-09-03T11:29:16.688Z,32.38
2022-09-03T11:32:05.567Z,32.34
2022-09-03T11:34:50.289Z,32.48
2022-09-03T11:37:19.419Z,32.44
2022-09-03T11:40:14.366Z,32.37
2022-09-03T11:42:43.249Z,32.58
2022-09-03T11:45:24.576Z,32.70
2022-09-03T11:47:52.155Z,32.56
2022-09-03T11:50:21.730Z,32.49
2022-09-03T11:52:50.314Z,32.50
2022-09-03T11:55:37.583Z,32.63
2022-09-03T11:58:20.329Z,32.60
2022-09-03T12:00:48.446Z,32.85
2022-09-03T12:03:16.169Z,32.64
2022-09-03T12:05:50.930Z,32.83
2022-09-03T12:08:20.673Z,32.76
2022-09-03T12:11:27.840Z,32.72
2022-09-03T12:14:27.449Z,32.81
2022-09-03T12:17:00.101Z,32.68
2022-09-03T12:19:33.088Z,32.52
2022-09-03T12:22:00.014Z,32.52
2022-09-03T12:24:27.559Z,32.54
2022-09-03T12:26:54.927Z,32.66
2022-09-03T12:29:27.791Z,32.59
2022-09-03T12:31:56.128Z,32.55
2022-09-03T12:34:24.220Z,32.48
2022-09-03T12:36:53.553Z,32.46
2022-09-03T12:42:20.802Z,32.62
2022-09-03T12:44:47.747Z,32.59
2022-09-03T12:47:36.952Z,32.62
2022-09-03T12:50:11.552Z,32.65
2022-09-03T12:53:09.368Z,32.68
2022-09-03T12:55:40.805Z,32.72
2022-09-03T12:58:15.227Z,32.71
2022-09-03T13:00:50.347Z,32.84
2022-09-03T13:03:28.245Z,33.00
2022-09-03T13:06:01.821Z,32.94
2022-09-03T13:08:36.944Z,33.17
2022-09-03T13:11:05.253Z,33.17
2022-09-03T13:13:35.677Z,33.00
2022-09-03T13:16:27.154Z,32.74
2022-09-03T13:19:11.796Z,32.43
2022-09-03T13:21:51.448Z,32.26
2022-09-03T13:24:24.640Z,32.13
2022-09-03T13:27:24.926Z,32.01
2022-09-03T13:30:20.157Z,31.98
2022-09-03T13:32:59.586Z,31.86
2022-09-03T13:35:45.051Z,31.77
2022-09-03T13:38:28.412Z,31.60
2022-09-03T13:41:02.784Z,31.64
2022-09-03T13:43:35.482Z,31.57
2022-09-03T13:46:28.457Z,31.63
2022-09-03T13:49:09.895Z,31.81
2022-09-03T13:51:43.258Z,31.77
2022-09-03T13:54:42.430Z,31.79
2022-09-03T13:57:25.492Z,31.86
2022-09-03T14:00:02.734Z,31.92
2022-09-03T14:02:44.700Z,32.01
2022-09-03T14:05:35.198Z,32.29
2022-09-03T14:08:12.345Z,32.28
2022-09-03T14:11:04.889Z,32.20
2022-09-03T14:13:46.556Z,32.19
2022-09-03T14:16:41.205Z,32.03
2022-09-03T14:19:29.394Z,32.00
2022-09-03T14:22:07.246Z,31.93
2022-09-03T14:24:52.213Z,31.92
2022-09-03T14:27:30.856Z,31.80
2022-09-03T14:30:19.429Z,31.92
2022-09-03T14:33:17.797Z,31.73
2022-09-03T14:36:17.607Z,31.67
2022-09-03T14:39:19.560Z,31.81
2022-09-03T14:41:55.809Z,31.44
2022-09-03T14:44:49.869Z,31.33
2022-09-03T14:47:49.608Z,31.17
2022-09-03T14:50:35.191Z,31.05
2022-09-03T14:53:30.974Z,30.94
2022-09-03T14:56:04.098Z,30.86
2022-09-03T14:59:02.545Z,30.73
2022-09-03T15:01:39.407Z,30.65
2022-09-03T15:04:29.952Z,30.53
2022-09-03T15:07:07.863Z,30.47
2022-09-03T15:09:45.398Z,30.39
2022-09-03T15:12:34.714Z,30.33
2022-09-03T15:15:08.836Z,30.29
2022-09-03T15:17:45.983Z,30.24
2022-09-03T15:20:30.958Z,30.22
2022-09-03T15:23:08.132Z,30.12
2022-09-03T15:25:59.951Z,30.23
2022-09-03T15:28:54.765Z,30.12
2022-09-03T15:31:43.143Z,30.10
2022-09-03T15:34:22.338Z,29.96
2022-09-03T15:36:52.440Z,29.84
2022-09-03T15:39:34.594Z,29.77
2022-09-03T15:42:15.041Z,29.75
2022-09-03T15:44:48.845Z,29.62
2022-09-03T15:47:40.048Z,29.52
2022-09-03T15:50:35.064Z,29.57
2022-09-03T15:53:15.480Z,29.52
2022-09-03T15:55:45.303Z,29.43
2022-09-03T15:58:31.181Z,29.35
2022-09-03T16:01:08.084Z,29.19
2022-09-03T16:03:44.369Z,29.14
2022-09-03T16:06:42.732Z,29.11
2022-09-03T16:09:23.019Z,28.92
2022-09-03T16:12:05.131Z,28.77
2022-09-03T16:14:39.720Z,28.62
2022-09-03T16:17:39.805Z,28.46
2022-09-03T16:20:20.611Z,28.29
2022-09-03T16:23:18.124Z,28.16
2022-09-03T16:26:05.537Z,28.03
2022-09-03T16:28:38.055Z,27.94
2022-09-03T16:31:15.082Z,27.84
2022-09-03T16:34:18.845Z,27.82
2022-09-03T16:36:52.325Z,27.74
2022-09-03T16:39:31.425Z,27.65
2022-09-03T16:42:11.639Z,27.54
2022-09-03T16:44:54.572Z,27.49
2022-09-03T16:47:38.289Z,27.50
2022-09-03T16:50:22.379Z,27.38
2022-09-03T16:53:15.830Z,27.36
2022-09-03T16:55:51.553Z,27.37
2022-09-03T16:59:02.541Z,27.31
2022-09-03T17:02:18.204Z,27.29
2022-09-03T17:05:54.846Z,27.23
2022-09-03T17:11:59.546Z,27.02
2022-09-03T17:15:04.212Z,26.95
2022-09-03T17:17:49.892Z,26.88
2022-09-03T17:20:49.187Z,26.86
2022-09-03T17:23:30.087Z,26.82
2022-09-03T17:26:20.410Z,26.79
2022-09-03T17:28:57.643Z,26.81
2022-09-03T17:31:49.380Z,26.81
2022-09-03T17:34:38.157Z,26.60
2022-09-03T17:37:26.806Z,26.43
2022-09-03T17:39:56.575Z,26.33
2022-09-03T17:43:03.057Z,26.21
2022-09-03T17:46:02.267Z,26.13
2022-09-03T17:48:46.346Z,26.12
2022-09-03T17:51:41.714Z,26.09
2022-09-03T17:54:20.709Z,26.05
2022-09-03T17:57:06.048Z,25.92
2022-09-03T17:59:37.983Z,25.84
2022-09-03T18:02:45.527Z,25.75
2022-09-03T18:05:29.563Z,25.62
2022-09-03T18:08:23.230Z,25.55
2022-09-03T18:10:55.600Z,25.50
2022-09-03T18:13:47.290Z,25.45
2022-09-03T18:16:23.009Z,25.32
2022-09-03T18:18:54.394Z,25.39
2022-09-03T18:21:31.689Z,25.36
2022-09-03T18:24:17.160Z,25.40
2022-09-03T18:26:52.872Z,25.44
2022-09-03T18:29:34.925Z,25.47
2022-09-03T18:32:02.239Z,25.50
2022-09-03T18:34:35.401Z,25.49
2022-09-03T18:39:47.528Z,25.41
2022-09-03T18:42:38.335Z,25.42
2022-09-03T18:45:56.319Z,25.42
2022-09-03T18:48:34.289Z,25.40
2022-09-03T18:51:11.110Z,25.42
2022-09-03T18:54:14.940Z,25.45
2022-09-03T18:56:48.016Z,25.46
2022-09-03T18:59:22.852Z,25.44
2022-09-03T19:01:50.548Z,25.41
2022-09-03T19:04:50.921Z,25.38
2022-09-03T19:07:45.963Z,25.36
2022-09-03T19:10:25.179Z,25.30
2022-09-03T19:13:13.792Z,25.28
2022-09-03T19:16:06.686Z,25.29
2022-09-03T19:19:12.034Z,25.27
2022-09-03T19:21:48.027Z,25.21
2022-09-03T19:24:15.106Z,25.14
2022-09-03T19:26:58.391Z,25.10
2022-09-03T19:30:04.230Z,25.01
2022-09-03T19:33:09.644Z,24.93
2022-09-03T19:36:02.707Z,24.85
2022-09-03T19:39:00.419Z,24.75
2022-09-03T19:41:44.147Z,24.69
2022-09-03T19:44:32.453Z,24.69
2022-09-03T19:47:02.500Z,24.81
2022-09-03T19:49:57.164Z,24.96
2022-09-03T19:52:43.175Z,25.14
2022-09-03T19:55:12.694Z,25.19
2022-09-03T19:57:41.994Z,25.19
2022-09-03T20:00:09.874Z,25.14
2022-09-03T20:02:38.705Z,25.08
2022-09-03T20:05:12.018Z,25.06
2022-09-03T20:07:39.285Z,25.15
2022-09-03T20:10:10.771Z,25.24
2022-09-03T20:12:42.672Z,25.33
2022-09-03T20:15:10.130Z,25.47
2022-09-03T20:17:57.442Z,25.55
2022-09-03T20:20:56.670Z,25.58
2022-09-03T20:23:35.395Z,25.55
2022-09-03T20:26:10.556Z,25.45
2022-09-03T20:28:49.384Z,25.32
2022-09-03T20:31:44.174Z,25.10
2022-09-03T20:34:13.688Z,24.95
2022-09-03T20:36:57.505Z,24.76
2022-09-03T20:39:46.243Z,24.61
2022-09-03T20:42:44.054Z,24.50
2022-09-03T20:45:16.319Z,24.41
2022-09-03T20:48:01.307Z,24.34
2022-09-03T20:50:33.715Z,24.27
2022-09-03T20:53:03.210Z,24.21
2022-09-03T20:55:41.880Z,24.14
2022-09-03T20:58:11.623Z,24.03
2022-09-03T21:01:09.919Z,23.95
2022-09-03T21:03:47.377Z,23.90
2022-09-03T21:06:43.522Z,23.87
2022-09-03T21:09:32.047Z,23.72
2022-09-03T21:12:15.283Z,23.65
2022-09-03T21:15:08.080Z,23.59
2022-09-03T21:17:46.255Z,23.56
2022-09-03T21:20:32.950Z,23.55
2022-09-03T21:23:13.286Z,23.55
2022-09-03T21:25:49.192Z,23.52
2022-09-03T21:28:27.253Z,23.55
2022-09-03T21:30:59.732Z,23.54
2022-09-03T21:33:33.637Z,23.52
2022-09-03T21:36:15.675Z,23.48
2022-09-03T21:38:48.973Z,23.46
2022-09-03T21:41:21.860Z,23.44
2022-09-03T21:44:17.047Z,23.42
2022-09-03T21:47:05.417Z,23.45
2022-09-03T21:49:53.561Z,23.45
2022-09-03T21:52:27.143Z,23.47
2022-09-03T21:54:54.278Z,23.49
2022-09-03T21:57:26.360Z,23.49
2022-09-03T22:00:05.001Z,23.48
2022-09-03T22:02:33.201Z,23.46
2022-09-03T22:05:01.284Z,23.46
2022-09-03T22:07:56.715Z,23.48
2022-09-03T22:10:44.947Z,23.49
2022-09-03T22:13:11.785Z,23.49
2022-09-03T22:15:38.742Z,23.46
2022-09-03T22:18:15.617Z,23.40
2022-09-03T22:20:47.526Z,23.44
2022-09-03T22:23:22.272Z,23.38
2022-09-03T22:25:55.191Z,23.34
2022-09-03T22:28:26.578Z,23.32
2022-09-03T22:31:06.582Z,23.32
2022-09-03T22:33:44.267Z,23.32
2022-09-03T22:36:16.443Z,23.33
2022-09-03T22:39:06.029Z,23.36
2022-09-03T22:41:53.007Z,23.36
2022-09-03T22:44:49.186Z,23.30
2022-09-03T22:47:28.057Z,23.25
2022-09-03T22:50:12.404Z,23.25
2022-09-03T22:52:44.614Z,23.23
2022-09-03T22:55:20.704Z,23.26
2022-09-03T22:58:08.167Z,23.20
2022-09-03T23:00:42.419Z,23.09
2022-09-03T23:03:16.322Z,22.98
2022-09-03T23:06:05.168Z,22.88
2022-09-03T23:08:41.469Z,22.78
2022-09-03T23:11:30.179Z,22.66
2022-09-03T23:14:06.885Z,22.55
2022-09-03T23:16:46.764Z,22.48
2022-09-03T23:21:52.557Z,22.38
2022-09-03T23:24:35.225Z,22.35
2022-09-03T23:27:07.626Z,22.31
2022-09-03T23:30:01.227Z,22.26
2022-09-03T23:32:33.364Z,22.22
2022-09-03T23:35:03.920Z,22.20
2022-09-03T23:37:45.925Z,22.19
2022-09-03T23:40:32.695Z,22.16
2022-09-03T23:43:19.219Z,22.15
2022-09-03T23:46:00.980Z,22.12
2022-09-03T23:48:30.665Z,22.05
2022-09-03T23:51:22.498Z,22.02
2022-09-03T23:54:23.494Z,21.96
2022-09-03T23:57:16.168Z,21.90
